sensor_id;sensor_type;location;lat;lon;timestamp;P1;durP1;ratioP1;P2;durP2;ratioP2
23952;SDS011;12163;49.316;6.092;2023-06-22T00:00:11;16.85;;;7.72;;
23952;SDS011;12163;49.316;6.092;2023-06-22T00:02:38;12.75;;;7.90;;
23952;SDS011;12163;49.316;6.092;2023-06-22T00:05:05;14.90;;;7.63;;
23952;SDS011;12163;49.316;6.092;2023-06-22T00:07:32;12.43;;;7.93;;
23952;SDS011;12163;49.316;6.092;2023-06-22T00:09:59;14.80;;;7.55;;
23952;SDS011;12163;49.316;6.092;2023-06-22T00:12:25;12.73;;;6.85;;
23952;SDS011;12163;49.316;6.092;2023-06-22T00:14:52;14.52;;;7.60;;
23952;SDS011;12163;49.316;6.092;2023-06-22T00:17:19;13.77;;;8.02;;
23952;SDS011;12163;49.316;6.092;2023-06-22T00:20:03;11.73;;;7.40;;
23952;SDS011;12163;49.316;6.092;2023-06-22T00:22:32;12.05;;;7.00;;
23952;SDS011;12163;49.316;6.092;2023-06-22T00:25:07;16.70;;;7.57;;
23952;SDS011;12163;49.316;6.092;2023-06-22T00:27:34;16.08;;;7.45;;
23952;SDS011;12163;49.316;6.092;2023-06-22T00:30:02;14.07;;;7.43;;
23952;SDS011;12163;49.316;6.092;2023-06-22T00:32:29;12.95;;;8.10;;
23952;SDS011;12163;49.316;6.092;2023-06-22T00:34:55;14.45;;;7.43;;
23952;SDS011;12163;49.316;6.092;2023-06-22T00:37:22;13.77;;;7.30;;
23952;SDS011;12163;49.316;6.092;2023-06-22T00:39:52;12.38;;;7.85;;
23952;SDS011;12163;49.316;6.092;2023-06-22T00:42:18;16.52;;;7.95;;
23952;SDS011;12163;49.316;6.092;2023-06-22T00:44:45;16.83;;;8.85;;
23952;SDS011;12163;49.316;6.092;2023-06-22T00:47:13;11.68;;;7.72;;
23952;SDS011;12163;49.316;6.092;2023-06-22T00:49:42;22.42;;;8.43;;
23952;SDS011;12163;49.316;6.092;2023-06-22T00:52:09;20.98;;;9.05;;
23952;SDS011;12163;49.316;6.092;2023-06-22T00:54:40;17.58;;;9.23;;
23952;SDS011;12163;49.316;6.092;2023-06-22T00:57:12;15.88;;;8.73;;
23952;SDS011;12163;49.316;6.092;2023-06-22T00:59:42;19.20;;;8.70;;
23952;SDS011;12163;49.316;6.092;2023-06-22T01:02:10;14.77;;;8.80;;
23952;SDS011;12163;49.316;6.092;2023-06-22T01:04:38;17.42;;;9.30;;
23952;SDS011;12163;49.316;6.092;2023-06-22T01:10:18;18.67;;;9.27;;
23952;SDS011;12163;49.316;6.092;2023-06-22T01:12:50;15.60;;;8.70;;
23952;SDS011;12163;49.316;6.092;2023-06-22T01:17:54;14.40;;;8.98;;
23952;SDS011;12163;49.316;6.092;2023-06-22T01:20:23;22.70;;;9.70;;
23952;SDS011;12163;49.316;6.092;2023-06-22T01:25:53;15.23;;;9.20;;
23952;SDS011;12163;49.316;6.092;2023-06-22T01:28:42;18.60;;;9.35;;
23952;SDS011;12163;49.316;6.092;2023-06-22T01:31:13;15.20;;;9.15;;
23952;SDS011;12163;49.316;6.092;2023-06-22T01:33:44;20.10;;;10.03;;
23952;SDS011;12163;49.316;6.092;2023-06-22T01:36:14;17.08;;;9.10;;
23952;SDS011;12163;49.316;6.092;2023-06-22T01:38:42;16.08;;;9.27;;
23952;SDS011;12163;49.316;6.092;2023-06-22T01:41:11;17.08;;;9.18;;
23952;SDS011;12163;49.316;6.092;2023-06-22T01:43:39;14.13;;;9.27;;
23952;SDS011;12163;49.316;6.092;2023-06-22T01:46:06;21.08;;;9.77;;
23952;SDS011;12163;49.316;6.092;2023-06-22T01:48:34;16.55;;;9.05;;
23952;SDS011;12163;49.316;6.092;2023-06-22T01:51:02;16.30;;;9.25;;
23952;SDS011;12163;49.316;6.092;2023-06-22T01:53:29;16.27;;;9.15;;
23952;SDS011;12163;49.316;6.092;2023-06-22T01:55:56;15.23;;;9.05;;
23952;SDS011;12163;49.316;6.092;2023-06-22T01:58:25;12.38;;;8.70;;
23952;SDS011;12163;49.316;6.092;2023-06-22T02:01:15;18.10;;;8.63;;
23952;SDS011;12163;49.316;6.092;2023-06-22T02:03:45;19.90;;;9.15;;
23952;SDS011;12163;49.316;6.092;2023-06-22T02:06:18;13.40;;;9.07;;
23952;SDS011;12163;49.316;6.092;2023-06-22T02:08:51;13.68;;;8.60;;
23952;SDS011;12163;49.316;6.092;2023-06-22T02:11:22;11.35;;;8.93;;
23952;SDS011;12163;49.316;6.092;2023-06-22T02:13:50;16.23;;;9.30;;
23952;SDS011;12163;49.316;6.092;2023-06-22T02:16:18;19.88;;;9.20;;
23952;SDS011;12163;49.316;6.092;2023-06-22T02:18:45;17.15;;;9.55;;
23952;SDS011;12163;49.316;6.092;2023-06-22T02:21:19;12.70;;;9.10;;
23952;SDS011;12163;49.316;6.092;2023-06-22T02:23:47;13.30;;;9.38;;
23952;SDS011;12163;49.316;6.092;2023-06-22T02:26:15;14.35;;;9.73;;
23952;SDS011;12163;49.316;6.092;2023-06-22T02:28:43;17.25;;;9.23;;
23952;SDS011;12163;49.316;6.092;2023-06-22T02:31:10;19.13;;;10.38;;
23952;SDS011;12163;49.316;6.092;2023-06-22T02:33:37;15.50;;;9.27;;
23952;SDS011;12163;49.316;6.092;2023-06-22T02:36:04;14.23;;;9.63;;
23952;SDS011;12163;49.316;6.092;2023-06-22T02:38:31;24.60;;;9.52;;
23952;SDS011;12163;49.316;6.092;2023-06-22T02:41:02;17.37;;;9.50;;
23952;SDS011;12163;49.316;6.092;2023-06-22T02:43:29;14.23;;;9.25;;
23952;SDS011;12163;49.316;6.092;2023-06-22T02:45:55;13.50;;;9.90;;
23952;SDS011;12163;49.316;6.092;2023-06-22T02:48:22;17.42;;;9.65;;
23952;SDS011;12163;49.316;6.092;2023-06-22T02:50:48;14.38;;;10.30;;
23952;SDS011;12163;49.316;6.092;2023-06-22T02:53:15;13.73;;;9.20;;
23952;SDS011;12163;49.316;6.092;2023-06-22T02:55:42;14.57;;;9.50;;
23952;SDS011;12163;49.316;6.092;2023-06-22T02:58:08;17.38;;;9.75;;
23952;SDS011;12163;49.316;6.092;2023-06-22T03:00:35;13.77;;;9.73;;
23952;SDS011;12163;49.316;6.092;2023-06-22T03:03:02;16.30;;;9.48;;
23952;SDS011;12163;49.316;6.092;2023-06-22T03:05:29;15.20;;;9.52;;
23952;SDS011;12163;49.316;6.092;2023-06-22T03:07:55;17.33;;;10.60;;
23952;SDS011;12163;49.316;6.092;2023-06-22T03:10:22;16.05;;;10.48;;
23952;SDS011;12163;49.316;6.092;2023-06-22T03:12:49;12.63;;;10.00;;
23952;SDS011;12163;49.316;6.092;2023-06-22T03:15:16;16.08;;;10.20;;
23952;SDS011;12163;49.316;6.092;2023-06-22T03:17:43;15.20;;;9.82;;
23952;SDS011;12163;49.316;6.092;2023-06-22T03:20:10;16.55;;;11.10;;
23952;SDS011;12163;49.316;6.092;2023-06-22T03:22:38;18.30;;;10.43;;
23952;SDS011;12163;49.316;6.092;2023-06-22T03:25:06;18.38;;;11.00;;
23952;SDS011;12163;49.316;6.092;2023-06-22T03:27:36;18.60;;;11.63;;
23952;SDS011;12163;49.316;6.092;2023-06-22T03:30:04;14.82;;;10.65;;
23952;SDS011;12163;49.316;6.092;2023-06-22T03:32:31;16.50;;;10.95;;
23952;SDS011;12163;49.316;6.092;2023-06-22T03:34:58;19.33;;;10.93;;
23952;SDS011;12163;49.316;6.092;2023-06-22T03:37:28;16.23;;;10.75;;
23952;SDS011;12163;49.316;6.092;2023-06-22T03:39:55;20.35;;;12.38;;
23952;SDS011;12163;49.316;6.092;2023-06-22T03:42:22;19.58;;;11.30;;
23952;SDS011;12163;49.316;6.092;2023-06-22T03:44:48;20.55;;;12.80;;
23952;SDS011;12163;49.316;6.092;2023-06-22T03:47:15;17.13;;;11.23;;
23952;SDS011;12163;49.316;6.092;2023-06-22T03:49:42;17.63;;;11.35;;
23952;SDS011;12163;49.316;6.092;2023-06-22T03:52:08;15.90;;;11.23;;
23952;SDS011;12163;49.316;6.092;2023-06-22T03:54:37;18.15;;;11.70;;
23952;SDS011;12163;49.316;6.092;2023-06-22T03:57:04;13.00;;;11.27;;
23952;SDS011;12163;49.316;6.092;2023-06-22T03:59:31;17.33;;;12.70;;
23952;SDS011;12163;49.316;6.092;2023-06-22T04:01:58;19.13;;;12.07;;
23952;SDS011;12163;49.316;6.092;2023-06-22T04:04:25;18.65;;;11.85;;
23952;SDS011;12163;49.316;6.092;2023-06-22T04:06:52;17.90;;;10.77;;
23952;SDS011;12163;49.316;6.092;2023-06-22T04:09:18;19.98;;;11.77;;
23952;SDS011;12163;49.316;6.092;2023-06-22T04:11:45;21.42;;;12.48;;
23952;SDS011;12163;49.316;6.092;2023-06-22T04:14:12;13.90;;;11.40;;
23952;SDS011;12163;49.316;6.092;2023-06-22T04:16:38;21.67;;;13.25;;
23952;SDS011;12163;49.316;6.092;2023-06-22T04:19:05;18.58;;;13.45;;
23952;SDS011;12163;49.316;6.092;2023-06-22T04:21:32;27.65;;;12.57;;
23952;SDS011;12163;49.316;6.092;2023-06-22T04:23:58;20.23;;;11.57;;
23952;SDS011;12163;49.316;6.092;2023-06-22T04:26:25;19.20;;;12.27;;
23952;SDS011;12163;49.316;6.092;2023-06-22T04:28:51;20.10;;;13.25;;
23952;SDS011;12163;49.316;6.092;2023-06-22T04:31:21;17.90;;;13.05;;
23952;SDS011;12163;49.316;6.092;2023-06-22T04:33:48;21.33;;;14.20;;
23952;SDS011;12163;49.316;6.092;2023-06-22T04:36:17;19.63;;;12.82;;
23952;SDS011;12163;49.316;6.092;2023-06-22T04:38:44;19.10;;;12.27;;
23952;SDS011;12163;49.316;6.092;2023-06-22T04:41:11;20.05;;;12.15;;
23952;SDS011;12163;49.316;6.092;2023-06-22T04:43:40;15.88;;;10.73;;
23952;SDS011;12163;49.316;6.092;2023-06-22T04:46:07;13.00;;;7.95;;
23952;SDS011;12163;49.316;6.092;2023-06-22T04:48:33;24.60;;;9.27;;
23952;SDS011;12163;49.316;6.092;2023-06-22T04:51:01;9.75;;;7.60;;
23952;SDS011;12163;49.316;6.092;2023-06-22T04:53:31;18.77;;;9.25;;
23952;SDS011;12163;49.316;6.092;2023-06-22T04:55:58;15.13;;;9.23;;
23952;SDS011;12163;49.316;6.092;2023-06-22T04:58:24;15.45;;;8.05;;
23952;SDS011;12163;49.316;6.092;2023-06-22T05:00:55;17.30;;;9.15;;
23952;SDS011;12163;49.316;6.092;2023-06-22T05:03:26;16.27;;;9.57;;
23952;SDS011;12163;49.316;6.092;2023-06-22T05:05:53;22.38;;;9.75;;
23952;SDS011;12163;49.316;6.092;2023-06-22T05:08:20;12.88;;;8.68;;
23952;SDS011;12163;49.316;6.092;2023-06-22T05:10:46;18.33;;;8.05;;
23952;SDS011;12163;49.316;6.092;2023-06-22T05:13:31;23.90;;;11.10;;
23952;SDS011;12163;49.316;6.092;2023-06-22T05:15:58;14.10;;;9.63;;
23952;SDS011;12163;49.316;6.092;2023-06-22T05:18:28;19.58;;;9.73;;
23952;SDS011;12163;49.316;6.092;2023-06-22T05:20:57;22.95;;;8.95;;
23952;SDS011;12163;49.316;6.092;2023-06-22T05:23:26;18.00;;;9.95;;
23952;SDS011;12163;49.316;6.092;2023-06-22T05:25:52;22.10;;;10.60;;
23952;SDS011;12163;49.316;6.092;2023-06-22T05:28:21;22.45;;;11.68;;
23952;SDS011;12163;49.316;6.092;2023-06-22T05:30:49;20.45;;;8.77;;
23952;SDS011;12163;49.316;6.092;2023-06-22T05:33:16;14.40;;;9.27;;
23952;SDS011;12163;49.316;6.092;2023-06-22T05:35:43;16.42;;;9.35;;
23952;SDS011;12163;49.316;6.092;2023-06-22T05:38:10;14.00;;;10.90;;
23952;SDS011;12163;49.316;6.092;2023-06-22T05:40:36;17.40;;;9.32;;
23952;SDS011;12163;49.316;6.092;2023-06-22T05:43:03;20.35;;;11.70;;
23952;SDS011;12163;49.316;6.092;2023-06-22T05:45:30;21.42;;;10.60;;
23952;SDS011;12163;49.316;6.092;2023-06-22T05:47:56;16.85;;;10.77;;
23952;SDS011;12163;49.316;6.092;2023-06-22T05:50:23;17.88;;;12.00;;
23952;SDS011;12163;49.316;6.092;2023-06-22T05:52:50;17.98;;;9.55;;
23952;SDS011;12163;49.316;6.092;2023-06-22T05:55:16;17.67;;;11.73;;
23952;SDS011;12163;49.316;6.092;2023-06-22T05:57:45;16.08;;;9.05;;
23952;SDS011;12163;49.316;6.092;2023-06-22T06:00:11;14.73;;;9.98;;
23952;SDS011;12163;49.316;6.092;2023-06-22T06:02:39;22.58;;;9.05;;
23952;SDS011;12163;49.316;6.092;2023-06-22T06:05:13;14.93;;;10.37;;
23952;SDS011;12163;49.316;6.092;2023-06-22T06:07:41;19.25;;;9.77;;
23952;SDS011;12163;49.316;6.092;2023-06-22T06:10:09;22.83;;;10.25;;
23952;SDS011;12163;49.316;6.092;2023-06-22T06:12:36;18.02;;;9.25;;
23952;SDS011;12163;49.316;6.092;2023-06-22T06:15:03;26.33;;;9.32;;
23952;SDS011;12163;49.316;6.092;2023-06-22T06:17:31;15.15;;;10.23;;
23952;SDS011;12163;49.316;6.092;2023-06-22T06:19:59;16.95;;;9.52;;
23952;SDS011;12163;49.316;6.092;2023-06-22T06:22:26;21.73;;;10.80;;
23952;SDS011;12163;49.316;6.092;2023-06-22T06:24:52;14.18;;;8.23;;
23952;SDS011;12163;49.316;6.092;2023-06-22T06:27:19;17.50;;;8.27;;
23952;SDS011;12163;49.316;6.092;2023-06-22T06:29:46;15.05;;;7.80;;
23952;SDS011;12163;49.316;6.092;2023-06-22T06:32:14;24.52;;;10.52;;
23952;SDS011;12163;49.316;6.092;2023-06-22T06:34:41;17.77;;;9.65;;
23952;SDS011;12163;49.316;6.092;2023-06-22T06:37:09;15.88;;;9.40;;
23952;SDS011;12163;49.316;6.092;2023-06-22T06:39:36;18.55;;;8.65;;
23952;SDS011;12163;49.316;6.092;2023-06-22T06:42:02;12.45;;;9.13;;
23952;SDS011;12163;49.316;6.092;2023-06-22T06:44:30;19.05;;;8.77;;
23952;SDS011;12163;49.316;6.092;2023-06-22T06:46:57;13.70;;;9.77;;
23952;SDS011;12163;49.316;6.092;2023-06-22T06:49:23;18.05;;;8.43;;
23952;SDS011;12163;49.316;6.092;2023-06-22T06:51:50;12.55;;;9.20;;
23952;SDS011;12163;49.316;6.092;2023-06-22T06:54:17;15.63;;;9.82;;
23952;SDS011;12163;49.316;6.092;2023-06-22T06:56:47;18.35;;;8.10;;
23952;SDS011;12163;49.316;6.092;2023-06-22T06:59:14;16.75;;;9.60;;
23952;SDS011;12163;49.316;6.092;2023-06-22T07:01:41;13.10;;;8.63;;
23952;SDS011;12163;49.316;6.092;2023-06-22T07:04:10;12.85;;;8.07;;
23952;SDS011;12163;49.316;6.092;2023-06-22T07:06:37;19.50;;;7.78;;
23952;SDS011;12163;49.316;6.092;2023-06-22T07:09:04;13.63;;;8.30;;
23952;SDS011;12163;49.316;6.092;2023-06-22T07:11:30;15.15;;;8.55;;
23952;SDS011;12163;49.316;6.092;2023-06-22T07:13:57;11.88;;;7.88;;
23952;SDS011;12163;49.316;6.092;2023-06-22T07:16:24;16.10;;;7.63;;
23952;SDS011;12163;49.316;6.092;2023-06-22T07:18:51;13.07;;;7.38;;
23952;SDS011;12163;49.316;6.092;2023-06-22T07:21:18;18.90;;;7.88;;
23952;SDS011;12163;49.316;6.092;2023-06-22T07:23:45;11.85;;;8.05;;
23952;SDS011;12163;49.316;6.092;2023-06-22T07:26:11;20.40;;;9.13;;
23952;SDS011;12163;49.316;6.092;2023-06-22T07:28:38;11.88;;;8.23;;
23952;SDS011;12163;49.316;6.092;2023-06-22T07:31:06;13.02;;;7.78;;
23952;SDS011;12163;49.316;6.092;2023-06-22T07:33:33;18.42;;;8.23;;
23952;SDS011;12163;49.316;6.092;2023-06-22T07:36:00;13.48;;;9.25;;
23952;SDS011;12163;49.316;6.092;2023-06-22T07:38:27;14.77;;;8.20;;
23952;SDS011;12163;49.316;6.092;2023-06-22T07:40:53;11.98;;;8.85;;
23952;SDS011;12163;49.316;6.092;2023-06-22T07:43:20;13.55;;;8.20;;
23952;SDS011;12163;49.316;6.092;2023-06-22T07:45:49;16.10;;;8.38;;
23952;SDS011;12163;49.316;6.092;2023-06-22T07:48:21;11.65;;;7.97;;
23952;SDS011;12163;49.316;6.092;2023-06-22T07:50:48;13.27;;;8.77;;
23952;SDS011;12163;49.316;6.092;2023-06-22T07:53:15;14.63;;;9.57;;
23952;SDS011;12163;49.316;6.092;2023-06-22T07:55:42;13.43;;;9.10;;
23952;SDS011;12163;49.316;6.092;2023-06-22T07:58:08;17.63;;;9.52;;
23952;SDS011;12163;49.316;6.092;2023-06-22T08:00:35;15.75;;;8.73;;
23952;SDS011;12163;49.316;6.092;2023-06-22T08:03:02;17.05;;;8.70;;
23952;SDS011;12163;49.316;6.092;2023-06-22T08:05:31;13.10;;;8.23;;
23952;SDS011;12163;49.316;6.092;2023-06-22T08:07:58;12.27;;;8.57;;
23952;SDS011;12163;49.316;6.092;2023-06-22T08:10:25;19.02;;;6.90;;
23952;SDS011;12163;49.316;6.092;2023-06-22T08:12:52;13.77;;;8.43;;
23952;SDS011;12163;49.316;6.092;2023-06-22T08:15:18;12.20;;;9.00;;
23952;SDS011;12163;49.316;6.092;2023-06-22T08:17:45;22.58;;;10.50;;
23952;SDS011;12163;49.316;6.092;2023-06-22T08:20:12;12.40;;;9.65;;
23952;SDS011;12163;49.316;6.092;2023-06-22T08:22:40;16.00;;;10.70;;
23952;SDS011;12163;49.316;6.092;2023-06-22T08:25:08;16.75;;;11.43;;
23952;SDS011;12163;49.316;6.092;2023-06-22T08:27:35;27.40;;;13.88;;
23952;SDS011;12163;49.316;6.092;2023-06-22T08:30:02;22.30;;;14.18;;
23952;SDS011;12163;49.316;6.092;2023-06-22T08:32:29;21.08;;;13.93;;
23952;SDS011;12163;49.316;6.092;2023-06-22T08:34:56;26.13;;;15.85;;
23952;SDS011;12163;49.316;6.092;2023-06-22T08:37:24;26.23;;;16.30;;
23952;SDS011;12163;49.316;6.092;2023-06-22T08:39:58;17.90;;;14.05;;
23952;SDS011;12163;49.316;6.092;2023-06-22T08:42:25;19.00;;;14.50;;
23952;SDS011;12163;49.316;6.092;2023-06-22T08:44:52;15.77;;;12.98;;
23952;SDS011;12163;49.316;6.092;2023-06-22T08:47:19;26.80;;;15.10;;
23952;SDS011;12163;49.316;6.092;2023-06-22T08:49:47;24.20;;;15.13;;
23952;SDS011;12163;49.316;6.092;2023-06-22T08:52:14;22.35;;;14.18;;
23952;SDS011;12163;49.316;6.092;2023-06-22T08:54:41;26.17;;;14.32;;
23952;SDS011;12163;49.316;6.092;2023-06-22T08:57:07;27.50;;;14.95;;
23952;SDS011;12163;49.316;6.092;2023-06-22T08:59:34;20.23;;;13.25;;
23952;SDS011;12163;49.316;6.092;2023-06-22T09:02:01;19.80;;;13.88;;
23952;SDS011;12163;49.316;6.092;2023-06-22T09:04:27;17.55;;;13.77;;
23952;SDS011;12163;49.316;6.092;2023-06-22T09:06:54;22.25;;;14.43;;
23952;SDS011;12163;49.316;6.092;2023-06-22T09:09:21;22.52;;;14.35;;
23952;SDS011;12163;49.316;6.092;2023-06-22T09:11:48;17.63;;;13.50;;
23952;SDS011;12163;49.316;6.092;2023-06-22T09:14:15;23.02;;;14.73;;
23952;SDS011;12163;49.316;6.092;2023-06-22T09:16:42;22.98;;;14.63;;
23952;SDS011;12163;49.316;6.092;2023-06-22T09:19:08;18.83;;;14.05;;
23952;SDS011;12163;49.316;6.092;2023-06-22T09:21:35;21.38;;;14.23;;
23952;SDS011;12163;49.316;6.092;2023-06-22T09:24:02;19.05;;;14.07;;
23952;SDS011;12163;49.316;6.092;2023-06-22T09:26:29;20.08;;;13.32;;
23952;SDS011;12163;49.316;6.092;2023-06-22T09:28:56;25.92;;;13.38;;
23952;SDS011;12163;49.316;6.092;2023-06-22T09:31:24;16.30;;;11.70;;
23952;SDS011;12163;49.316;6.092;2023-06-22T09:33:53;18.73;;;12.40;;
23952;SDS011;12163;49.316;6.092;2023-06-22T09:36:21;18.33;;;12.55;;
23952;SDS011;12163;49.316;6.092;2023-06-22T09:38:48;23.60;;;12.30;;
23952;SDS011;12163;49.316;6.092;2023-06-22T09:41:21;18.90;;;12.60;;
23952;SDS011;12163;49.316;6.092;2023-06-22T09:43:49;19.77;;;11.93;;
23952;SDS011;12163;49.316;6.092;2023-06-22T09:46:16;16.25;;;12.55;;
23952;SDS011;12163;49.316;6.092;2023-06-22T09:48:42;17.67;;;12.13;;
23952;SDS011;12163;49.316;6.092;2023-06-22T09:51:09;18.75;;;11.85;;
23952;SDS011;12163;49.316;6.092;2023-06-22T09:53:36;17.98;;;11.20;;
23952;SDS011;12163;49.316;6.092;2023-06-22T09:56:04;17.05;;;12.07;;
23952;SDS011;12163;49.316;6.092;2023-06-22T09:58:32;14.60;;;10.70;;
23952;SDS011;12163;49.316;6.092;2023-06-22T10:00:59;15.38;;;11.25;;
23952;SDS011;12163;49.316;6.092;2023-06-22T10:03:25;14.88;;;10.48;;
23952;SDS011;12163;49.316;6.092;2023-06-22T10:05:52;14.70;;;10.85;;
23952;SDS011;12163;49.316;6.092;2023-06-22T10:08:19;13.70;;;10.35;;
23952;SDS011;12163;49.316;6.092;2023-06-22T10:10:46;14.88;;;10.50;;
23952;SDS011;12163;49.316;6.092;2023-06-22T10:13:13;14.98;;;10.75;;
23952;SDS011;12163;49.316;6.092;2023-06-22T10:15:39;12.95;;;10.60;;
23952;SDS011;12163;49.316;6.092;2023-06-22T10:18:06;22.05;;;10.68;;
23952;SDS011;12163;49.316;6.092;2023-06-22T10:20:33;14.23;;;10.80;;
23952;SDS011;12163;49.316;6.092;2023-06-22T10:22:59;12.50;;;10.50;;
23952;SDS011;12163;49.316;6.092;2023-06-22T10:25:26;14.55;;;10.07;;
23952;SDS011;12163;49.316;6.092;2023-06-22T10:27:53;13.23;;;11.13;;
23952;SDS011;12163;49.316;6.092;2023-06-22T10:30:20;13.07;;;10.98;;
23952;SDS011;12163;49.316;6.092;2023-06-22T10:32:47;11.50;;;10.25;;
23952;SDS011;12163;49.316;6.092;2023-06-22T10:35:14;11.25;;;10.07;;
23952;SDS011;12163;49.316;6.092;2023-06-22T10:37:43;15.98;;;11.30;;
23952;SDS011;12163;49.316;6.092;2023-06-22T10:40:11;16.33;;;11.73;;
23952;SDS011;12163;49.316;6.092;2023-06-22T10:42:42;18.15;;;10.88;;
23952;SDS011;12163;49.316;6.092;2023-06-22T10:45:09;11.50;;;10.18;;
23952;SDS011;12163;49.316;6.092;2023-06-22T10:47:35;13.95;;;10.27;;
23952;SDS011;12163;49.316;6.092;2023-06-22T10:50:03;12.35;;;9.65;;
23952;SDS011;12163;49.316;6.092;2023-06-22T10:52:30;15.68;;;9.98;;
23952;SDS011;12163;49.316;6.092;2023-06-22T10:54:57;15.82;;;11.05;;
23952;SDS011;12163;49.316;6.092;2023-06-22T10:57:24;12.18;;;9.57;;
23952;SDS011;12163;49.316;6.092;2023-06-22T10:59:50;12.50;;;9.57;;
23952;SDS011;12163;49.316;6.092;2023-06-22T11:02:17;14.93;;;9.95;;
23952;SDS011;12163;49.316;6.092;2023-06-22T11:04:44;15.30;;;10.40;;
23952;SDS011;12163;49.316;6.092;2023-06-22T11:07:10;14.70;;;10.15;;
23952;SDS011;12163;49.316;6.092;2023-06-22T11:09:37;12.77;;;10.40;;
23952;SDS011;12163;49.316;6.092;2023-06-22T11:12:05;14.38;;;10.38;;
23952;SDS011;12163;49.316;6.092;2023-06-22T11:14:32;13.75;;;10.30;;
23952;SDS011;12163;49.316;6.092;2023-06-22T11:17:02;17.70;;;10.15;;
23952;SDS011;12163;49.316;6.092;2023-06-22T11:19:28;12.30;;;9.73;;
23952;SDS011;12163;49.316;6.092;2023-06-22T11:21:55;14.45;;;10.20;;
23952;SDS011;12163;49.316;6.092;2023-06-22T11:24:21;12.63;;;9.98;;
23952;SDS011;12163;49.316;6.092;2023-06-22T11:26:48;17.85;;;9.95;;
23952;SDS011;12163;49.316;6.092;2023-06-22T11:29:15;13.95;;;9.75;;
23952;SDS011;12163;49.316;6.092;2023-06-22T11:32:02;16.90;;;10.38;;
23952;SDS011;12163;49.316;6.092;2023-06-22T11:34:28;17.33;;;9.93;;
23952;SDS011;12163;49.316;6.092;2023-06-22T11:36:55;14.20;;;10.00;;
23952;SDS011;12163;49.316;6.092;2023-06-22T11:39:22;15.90;;;9.93;;
23952;SDS011;12163;49.316;6.092;2023-06-22T11:42:06;14.00;;;9.38;;
23952;SDS011;12163;49.316;6.092;2023-06-22T11:44:33;18.48;;;9.57;;
23952;SDS011;12163;49.316;6.092;2023-06-22T11:47:00;11.23;;;7.57;;
23952;SDS011;12163;49.316;6.092;2023-06-22T11:49:27;14.43;;;8.77;;
23952;SDS011;12163;49.316;6.092;2023-06-22T11:51:54;14.85;;;9.13;;
23952;SDS011;12163;49.316;6.092;2023-06-22T11:54:20;14.88;;;8.18;;
23952;SDS011;12163;49.316;6.092;2023-06-22T11:56:47;14.65;;;8.85;;
23952;SDS011;12163;49.316;6.092;2023-06-22T11:59:14;14.10;;;8.27;;
23952;SDS011;12163;49.316;6.092;2023-06-22T12:01:40;15.32;;;8.20;;
23952;SDS011;12163;49.316;6.092;2023-06-22T12:04:07;12.48;;;8.00;;
23952;SDS011;12163;49.316;6.092;2023-06-22T12:06:37;13.57;;;7.47;;
23952;SDS011;12163;49.316;6.092;2023-06-22T12:09:08;12.15;;;7.82;;
23952;SDS011;12163;49.316;6.092;2023-06-22T12:11:34;13.07;;;8.30;;
23952;SDS011;12163;49.316;6.092;2023-06-22T12:14:01;18.50;;;9.10;;
23952;SDS011;12163;49.316;6.092;2023-06-22T12:16:28;17.60;;;7.78;;
23952;SDS011;12163;49.316;6.092;2023-06-22T12:18:55;17.08;;;8.02;;
23952;SDS011;12163;49.316;6.092;2023-06-22T12:21:22;16.00;;;8.38;;
23952;SDS011;12163;49.316;6.092;2023-06-22T12:23:48;14.25;;;8.18;;
23952;SDS011;12163;49.316;6.092;2023-06-22T12:26:16;21.63;;;8.63;;
23952;SDS011;12163;49.316;6.092;2023-06-22T12:28:42;15.07;;;8.13;;
23952;SDS011;12163;49.316;6.092;2023-06-22T12:31:09;14.55;;;8.45;;
23952;SDS011;12163;49.316;6.092;2023-06-22T12:33:36;26.23;;;11.18;;
23952;SDS011;12163;49.316;6.092;2023-06-22T12:36:03;42.60;;;11.73;;
23952;SDS011;12163;49.316;6.092;2023-06-22T12:38:31;21.55;;;10.65;;
23952;SDS011;12163;49.316;6.092;2023-06-22T12:40:57;16.02;;;7.93;;
23952;SDS011;12163;49.316;6.092;2023-06-22T12:43:24;16.90;;;8.20;;
23952;SDS011;12163;49.316;6.092;2023-06-22T12:45:51;16.50;;;7.38;;
23952;SDS011;12163;49.316;6.092;2023-06-22T12:48:17;15.60;;;6.97;;
23952;SDS011;12163;49.316;6.092;2023-06-22T12:50:44;17.17;;;6.00;;
23952;SDS011;12163;49.316;6.092;2023-06-22T12:53:10;24.52;;;5.57;;
23952;SDS011;12163;49.316;6.092;2023-06-22T12:55:37;12.60;;;4.35;;
23952;SDS011;12163;49.316;6.092;2023-06-22T12:58:04;9.52;;;3.65;;
23952;SDS011;12163;49.316;6.092;2023-06-22T13:00:30;8.35;;;3.80;;
23952;SDS011;12163;49.316;6.092;2023-06-22T13:02:57;7.45;;;3.60;;
23952;SDS011;12163;49.316;6.092;2023-06-22T13:05:24;10.18;;;4.15;;
23952;SDS011;12163;49.316;6.092;2023-06-22T13:07:51;21.67;;;4.28;;
23952;SDS011;12163;49.316;6.092;2023-06-22T13:10:17;10.25;;;3.65;;
23952;SDS011;12163;49.316;6.092;2023-06-22T13:12:44;26.90;;;4.28;;
23952;SDS011;12163;49.316;6.092;2023-06-22T13:15:11;11.55;;;3.20;;
23952;SDS011;12163;49.316;6.092;2023-06-22T13:17:37;14.75;;;3.38;;
23952;SDS011;12163;49.316;6.092;2023-06-22T13:20:05;11.05;;;3.28;;
23952;SDS011;12163;49.316;6.092;2023-06-22T13:22:32;12.75;;;2.92;;
23952;SDS011;12163;49.316;6.092;2023-06-22T13:25:06;6.53;;;2.75;;
23952;SDS011;12163;49.316;6.092;2023-06-22T13:27:33;9.88;;;3.47;;
23952;SDS011;12163;49.316;6.092;2023-06-22T13:30:00;15.65;;;3.35;;
23952;SDS011;12163;49.316;6.092;2023-06-22T13:32:27;9.93;;;2.80;;
23952;SDS011;12163;49.316;6.092;2023-06-22T13:34:54;10.55;;;2.92;;
23952;SDS011;12163;49.316;6.092;2023-06-22T13:37:21;10.77;;;3.13;;
23952;SDS011;12163;49.316;6.092;2023-06-22T13:39:47;15.07;;;3.00;;
23952;SDS011;12163;49.316;6.092;2023-06-22T13:42:14;8.15;;;3.00;;
23952;SDS011;12163;49.316;6.092;2023-06-22T13:44:40;12.75;;;3.00;;
23952;SDS011;12163;49.316;6.092;2023-06-22T13:47:07;13.13;;;2.92;;
23952;SDS011;12163;49.316;6.092;2023-06-22T13:49:34;6.95;;;3.22;;
23952;SDS011;12163;49.316;6.092;2023-06-22T13:52:01;8.98;;;3.30;;
23952;SDS011;12163;49.316;6.092;2023-06-22T13:54:29;10.88;;;3.38;;
23952;SDS011;12163;49.316;6.092;2023-06-22T13:56:59;15.43;;;3.28;;
23952;SDS011;12163;49.316;6.092;2023-06-22T13:59:25;9.75;;;2.85;;
23952;SDS011;12163;49.316;6.092;2023-06-22T14:01:54;10.35;;;3.17;;
23952;SDS011;12163;49.316;6.092;2023-06-22T14:04:22;9.13;;;2.90;;
23952;SDS011;12163;49.316;6.092;2023-06-22T14:06:49;7.95;;;2.83;;
23952;SDS011;12163;49.316;6.092;2023-06-22T14:09:16;10.13;;;3.10;;
23952;SDS011;12163;49.316;6.092;2023-06-22T14:11:43;8.82;;;2.70;;
23952;SDS011;12163;49.316;6.092;2023-06-22T14:14:10;7.35;;;2.45;;
23952;SDS011;12163;49.316;6.092;2023-06-22T14:16:36;9.18;;;2.90;;
23952;SDS011;12163;49.316;6.092;2023-06-22T14:19:03;19.45;;;2.90;;
23952;SDS011;12163;49.316;6.092;2023-06-22T14:21:29;6.65;;;2.47;;
23952;SDS011;12163;49.316;6.092;2023-06-22T14:23:56;7.75;;;2.65;;
23952;SDS011;12163;49.316;6.092;2023-06-22T14:26:23;9.02;;;2.17;;
23952;SDS011;12163;49.316;6.092;2023-06-22T14:28:49;6.13;;;2.10;;
23952;SDS011;12163;49.316;6.092;2023-06-22T14:31:17;5.75;;;1.67;;
23952;SDS011;12163;49.316;6.092;2023-06-22T14:33:48;9.00;;;1.55;;
23952;SDS011;12163;49.316;6.092;2023-06-22T14:36:16;5.75;;;1.33;;
23952;SDS011;12163;49.316;6.092;2023-06-22T14:38:44;7.82;;;1.05;;
23952;SDS011;12163;49.316;6.092;2023-06-22T14:41:12;8.38;;;1.10;;